Stations météo

Publicité
Sabadell Airport, Espagne (2008420): Température de l'air & dewpoint: 11.08.2019 16:00:00 - 17.08.2019 16:00:00 (CEST)Sabadell Airport, Espagne (2008420): Vitesse du vent: 11.08.2019 16:00:00 - 17.08.2019 16:00:00 (CEST)Sabadell Airport, Espagne (2008420): Direction du vent: 11.08.2019 16:00:00 - 17.08.2019 16:00:00 (CEST)Sabadell Airport, Espagne (2008420): visibility: 11.08.2019 16:00:00 - 17.08.2019 16:00:00 (CEST)
Date & Time tt [°C] td [°C] ff [km/h] ff [knt] dd vv [km]
17.08.2019 16:00:00 31,0 22,0 21 11 SSE 10
17.08.2019 15:00:00 32,0 21,0 16 9 S 10
17.08.2019 14:00:00 32,0 19,0 11 6 S 10
17.08.2019 13:00:00 32,0 20,0 4 2 WSW 10
17.08.2019 12:00:00 30,0 19,0 9 5 S 10
17.08.2019 11:00:00 29,0 19,0 9 5 SSW 10
17.08.2019 10:00:00 - - - - - -
17.08.2019 09:00:00 25,0 20,0 0 0 N 10
17.08.2019 08:00:00 23,0 20,0 2 1 - 10
17.08.2019 07:00:00 21,0 20,0 0 0 N 10
17.08.2019 06:00:00 21,0 20,0 2 1 - 10
17.08.2019 05:00:00 22,0 21,0 0 0 N 10
17.08.2019 04:00:00 23,0 21,0 0 0 N 10
17.08.2019 03:00:00 23,0 21,0 5 3 W 10
17.08.2019 02:00:00 22,0 21,0 5 3 WNW 10
17.08.2019 01:00:00 23,0 20,0 4 2 W 10
17.08.2019 00:00:00 24,0 19,0 2 1 - 10
16.08.2019 23:00:00 25,0 19,0 4 2 - 10
16.08.2019 22:00:00 25,0 18,0 8 4 W 10
16.08.2019 21:00:00 27,0 18,0 9 5 S 10
16.08.2019 20:00:00 29,0 19,0 13 7 S 10
16.08.2019 19:00:00 30,0 20,0 16 9 SSW 10
16.08.2019 18:00:00 30,0 20,0 15 8 SSW 10
16.08.2019 17:00:00 29,0 22,0 11 6 ESE 10
16.08.2019 16:00:00 29,0 21,0 9 5 SSE 10
16.08.2019 15:00:00 28,0 21,0 16 9 S 10
16.08.2019 14:00:00 26,0 20,0 9 5 SSE 10
16.08.2019 13:00:00 26,0 20,0 11 6 S 10
16.08.2019 12:00:00 24,0 20,0 9 5 S 10
16.08.2019 11:00:00 23,0 20,0 4 2 - 10
16.08.2019 10:00:00 23,0 20,0 5 3 SE 10
16.08.2019 09:00:00 23,0 20,0 9 5 SSE 10
16.08.2019 08:00:00 23,0 20,0 11 6 SE 10
16.08.2019 07:00:00 24,0 19,0 2 1 SE 10
16.08.2019 06:00:00 23,0 19,0 2 1 SW 10
16.08.2019 05:00:00 23,0 19,0 2 1 - 10
16.08.2019 04:00:00 24,0 18,0 4 2 NNE 10
16.08.2019 03:00:00 24,0 18,0 5 3 NNE 10
16.08.2019 02:00:00 24,0 19,0 5 3 NNE 10
16.08.2019 01:00:00 24,0 19,0 5 3 NNE 10
16.08.2019 00:00:00 24,0 19,0 8 4 NNE 10
15.08.2019 23:00:00 24,0 20,0 9 5 NE 10
15.08.2019 22:00:00 24,0 20,0 8 4 NE 10
15.08.2019 21:00:00 26,0 21,0 9 5 ENE 10
15.08.2019 20:00:00 27,0 22,0 16 9 SE 10
15.08.2019 19:00:00 28,0 22,0 18 10 SE 10
15.08.2019 18:00:00 30,0 20,0 16 9 SSE 10
15.08.2019 17:00:00 31,0 19,0 18 10 SE 10
15.08.2019 16:00:00 31,0 19,0 18 10 SSE 10
15.08.2019 15:00:00 31,0 19,0 13 7 S 10
15.08.2019 14:00:00 29,0 22,0 16 9 SE 10
15.08.2019 13:00:00 29,0 21,0 15 8 SE 10
15.08.2019 12:00:00 29,0 21,0 11 6 SE 10
15.08.2019 11:00:00 27,0 20,0 5 3 ESE 10
15.08.2019 10:00:00 - - - - - -
15.08.2019 09:00:00 22,0 18,0 4 2 - 10
15.08.2019 08:00:00 21,0 19,0 0 0 N 10
15.08.2019 07:00:00 20,0 18,0 0 0 N 10
15.08.2019 06:00:00 20,0 19,0 0 0 N 10
15.08.2019 05:00:00 20,0 19,0 5 3 W 10
15.08.2019 04:00:00 20,0 18,0 5 3 WNW 10
15.08.2019 03:00:00 20,0 18,0 5 3 WNW 10
15.08.2019 02:00:00 21,0 18,0 4 2 WNW 10
15.08.2019 01:00:00 22,0 19,0 5 3 W 10
15.08.2019 00:00:00 24,0 18,0 5 3 N 10
14.08.2019 23:00:00 24,0 20,0 2 1 WSW 10
14.08.2019 22:00:00 25,0 20,0 8 4 SSW 10
14.08.2019 21:00:00 26,0 19,0 11 6 S 10
14.08.2019 20:00:00 26,0 18,0 11 6 S 10
14.08.2019 19:00:00 27,0 16,0 13 7 E 10
14.08.2019 18:00:00 27,0 17,0 11 6 ESE 10
14.08.2019 17:00:00 26,0 18,0 16 9 ESE 10
14.08.2019 16:00:00 26,0 18,0 21 11 SE 10
14.08.2019 15:00:00 27,0 18,0 21 11 SE 10
14.08.2019 14:00:00 27,0 17,0 22 12 ESE 10
14.08.2019 13:00:00 27,0 11,0 11 6 SSW 10
14.08.2019 12:00:00 26,0 14,0 5 3 SSW 10
14.08.2019 11:00:00 25,0 16,0 4 2 E 10
14.08.2019 10:00:00 24,0 16,0 2 1 E 10
14.08.2019 09:00:00 21,0 17,0 2 1 - 10
14.08.2019 08:00:00 19,0 16,0 4 2 - 10
14.08.2019 07:00:00 19,0 16,0 2 1 - 10
14.08.2019 06:00:00 21,0 16,0 5 3 NE 10
14.08.2019 05:00:00 21,0 16,0 4 2 - 10
14.08.2019 04:00:00 21,0 17,0 2 1 NE 10
14.08.2019 03:00:00 21,0 17,0 5 3 N 10
14.08.2019 02:00:00 21,0 17,0 5 3 NNE 10
14.08.2019 01:00:00 20,0 17,0 4 2 - 10
14.08.2019 00:00:00 20,0 17,0 5 3 W 10
13.08.2019 23:00:00 22,0 17,0 4 2 - 10
13.08.2019 22:00:00 24,0 16,0 2 1 - 10
13.08.2019 21:00:00 25,0 15,0 9 5 SSW 10
13.08.2019 20:00:00 26,0 16,0 16 9 S 10
13.08.2019 19:00:00 27,0 14,0 21 11 S 10
13.08.2019 18:00:00 28,0 14,0 21 11 S 10
13.08.2019 17:00:00 28,0 13,0 21 11 S 10
13.08.2019 16:00:00 28,0 13,0 18 10 S 10
13.08.2019 15:00:00 29,0 11,0 16 9 S 10
13.08.2019 14:00:00 28,0 10,0 13 7 WSW 10
13.08.2019 13:00:00 26,0 10,0 11 6 W 10
13.08.2019 12:00:00 25,0 10,0 13 7 WSW 10
13.08.2019 11:00:00 23,0 11,0 8 4 W 10
13.08.2019 10:00:00 21,0 11,0 4 2 WNW 10
13.08.2019 09:00:00 20,0 12,0 9 5 W 10
13.08.2019 08:00:00 19,0 12,0 8 4 W 10
13.08.2019 07:00:00 18,0 12,0 5 3 W 10
13.08.2019 06:00:00 19,0 12,0 4 2 - 10
13.08.2019 05:00:00 18,0 14,0 4 2 - 10
13.08.2019 04:00:00 19,0 14,0 4 2 WNW 10
13.08.2019 03:00:00 21,0 13,0 4 2 NE 10
13.08.2019 02:00:00 22,0 13,0 0 0 N 10
13.08.2019 01:00:00 23,0 13,0 5 3 NE 10
13.08.2019 00:00:00 23,0 18,0 4 2 NW 10
12.08.2019 23:00:00 24,0 18,0 5 3 SW 10
12.08.2019 22:00:00 24,0 18,0 5 3 S 10
12.08.2019 21:00:00 25,0 18,0 13 7 SE 10
12.08.2019 20:00:00 25,0 19,0 16 9 ESE 10
12.08.2019 19:00:00 27,0 18,0 16 9 SE 10
12.08.2019 18:00:00 28,0 18,0 21 11 SSE 10
12.08.2019 17:00:00 29,0 18,0 21 11 SSE 10
12.08.2019 16:00:00 29,0 18,0 13 7 SSE 10
12.08.2019 15:00:00 29,0 17,0 11 6 S 10
12.08.2019 14:00:00 28,0 17,0 11 6 WSW 10
12.08.2019 13:00:00 26,0 17,0 9 5 WSW 10
12.08.2019 12:00:00 25,0 18,0 9 5 SW 10
12.08.2019 11:00:00 24,0 19,0 11 6 WSW 10
12.08.2019 10:00:00 24,0 21,0 5 3 WSW 10
12.08.2019 09:00:00 22,0 21,0 5 3 WSW 10
12.08.2019 08:00:00 22,0 20,0 5 3 WSW 10
12.08.2019 07:00:00 22,0 20,0 5 3 NNW 10
12.08.2019 06:00:00 21,0 21,0 8 4 WNW 10
12.08.2019 05:00:00 22,0 21,0 11 6 S 9
12.08.2019 04:00:00 25,0 19,0 5 3 NE 10
12.08.2019 03:00:00 24,0 19,0 2 1 - 10
12.08.2019 02:00:00 24,0 19,0 5 3 W 10
12.08.2019 01:00:00 25,0 19,0 2 1 - 10
12.08.2019 00:00:00 25,0 19,0 8 4 ENE 10
11.08.2019 23:00:00 26,0 19,0 9 5 ESE 10
11.08.2019 22:00:00 26,0 22,0 13 7 E 10
11.08.2019 21:00:00 27,0 23,0 18 10 ESE 10
11.08.2019 20:00:00 28,0 23,0 16 9 E 10
11.08.2019 19:00:00 30,0 23,0 16 9 E 10
11.08.2019 18:00:00 31,0 22,0 18 10 E 10
11.08.2019 17:00:00 32,0 20,0 16 9 ESE 10
11.08.2019 16:00:00 31,0 19,0 16 9 ESE 10

tt = Température de l'air
td = dewpoint
ff = Vitesse du vent
dd = Direction du vent
vv = visibility

stations d'obs. à proximité